Time;durP1;ratioP1;P1;durP2;ratioP2;P2;SDS_P1;SDS_P2;PMS_P1;PMS_P2;Temp;Humidity;BMP_temperature;BMP_pressure;BME280_temperature;BME280_humidity;BME280_pressure;Samples;Min_cycle;Max_cycle;Signal;HPM_P1;HPM_P2
2021/07/12 00:00:39;;;;;;;14.40;6.72;;;20.10;99.90;;;;;;5060335;28;20067;-69
2021/07/12 00:03:43;;;;;;;13.70;5.97;;;20.10;99.90;;;;;;5074095;28;20037;-69
2021/07/12 00:06:47;;;;;;;9.73;4.13;;;20.00;99.90;;;;;;5074209;28;20039;-68
2021/07/12 00:09:51;;;;;;;10.50;4.50;;;19.90;99.90;;;;;;5073916;28;20056;-68
2021/07/12 00:12:56;;;;;;;12.02;4.80;;;19.90;99.90;;;;;;5073901;28;20051;-68
2021/07/12 00:16:00;;;;;;;7.38;3.58;;;19.90;99.90;;;;;;5073848;28;20055;-68
2021/07/12 00:19:05;;;;;;;6.43;4.38;;;19.90;99.90;;;;;;5066241;28;20047;-68
2021/07/12 00:22:09;;;;;;;9.50;4.47;;;19.80;99.90;;;;;;5074468;28;20047;-68
2021/07/12 00:25:13;;;;;;;7.97;4.40;;;19.70;99.90;;;;;;5073715;28;20063;-68
2021/07/12 00:28:17;;;;;;;9.57;5.55;;;19.60;99.90;;;;;;5073683;28;20043;-68
2021/07/12 00:31:21;;;;;;;6.13;4.22;;;19.50;99.90;;;;;;5073394;28;20501;-68
2021/07/12 00:34:25;;;;;;;12.55;5.18;;;19.50;99.90;;;;;;5073487;28;20406;-68
2021/07/12 00:37:29;;;;;;;10.32;4.78;;;19.50;99.90;;;;;;5073172;28;20039;-68
2021/07/12 00:40:34;;;;;;;6.90;4.38;;;19.50;99.90;;;;;;5071726;28;20055;-69
2021/07/12 00:43:41;;;;;;;7.90;3.50;;;19.50;99.90;;;;;;5072570;28;20043;-68
2021/07/12 00:46:46;;;;;;;7.22;4.20;;;19.40;99.90;;;;;;5072832;28;20043;-68
2021/07/12 00:49:50;;;;;;;4.57;3.08;;;19.40;99.90;;;;;;5072161;28;20050;-68
2021/07/12 00:52:56;;;;;;;9.63;4.18;;;19.40;99.90;;;;;;5073139;28;20055;-68
2021/07/12 00:56:00;;;;;;;5.55;3.65;;;19.40;99.90;;;;;;5053062;28;21183;-68
2021/07/12 00:59:07;;;;;;;8.88;3.92;;;19.40;99.90;;;;;;5051582;28;20055;-68
2021/07/12 01:02:12;;;;;;;9.93;4.78;;;19.40;99.90;;;;;;5052305;28;20044;-69
2021/07/12 01:05:20;;;;;;;10.82;4.35;;;19.30;99.90;;;;;;5051393;28;20055;-68
2021/07/12 01:08:25;;;;;;;10.52;4.22;;;19.30;99.90;;;;;;5052831;28;20071;-68
2021/07/12 01:11:48;;;;;;;8.23;4.68;;;19.30;99.90;;;;;;5051380;28;20040;-68
2021/07/12 01:15:06;;;;;;;8.20;4.50;;;19.30;99.90;;;;;;5052641;28;20040;-68
2021/07/12 01:18:44;;;;;;;8.75;3.65;;;19.20;99.90;;;;;;5052528;28;20048;-68
2021/07/12 01:22:25;;;;;;;6.47;3.33;;;19.20;99.90;;;;;;5051939;28;20051;-68
2021/07/12 01:26:00;;;;;;;5.43;3.20;;;19.10;99.90;;;;;;5052496;28;20047;-68
2021/07/12 01:29:29;;;;;;;8.05;3.53;;;19.10;99.90;;;;;;5051867;28;20052;-68
2021/07/12 01:32:41;;;;;;;4.55;3.35;;;19.00;99.90;;;;;;5051533;28;20056;-68
2021/07/12 01:35:59;;;;;;;6.95;3.53;;;19.10;99.90;;;;;;5051222;28;20487;-68
2021/07/12 01:39:18;;;;;;;8.85;3.55;;;19.10;99.90;;;;;;5051487;28;20051;-68
2021/07/12 01:42:29;;;;;;;6.68;3.17;;;19.00;99.90;;;;;;5052018;28;20040;-68
2021/07/12 01:45:46;;;;;;;10.02;2.83;;;19.00;99.90;;;;;;5051379;28;20044;-68
2021/07/12 01:49:08;;;;;;;4.78;3.13;;;19.00;99.90;;;;;;5051460;28;20056;-68
2021/07/12 01:52:36;;;;;;;11.38;4.00;;;19.10;99.90;;;;;;5050556;28;20044;-67
2021/07/12 01:56:02;;;;;;;4.38;2.90;;;18.90;99.90;;;;;;5051304;28;20044;-68
2021/07/12 02:00:15;;;;;;;5.78;2.97;;;18.80;99.90;;;;;;5049803;28;20056;-68
2021/07/12 02:03:26;;;;;;;4.85;2.83;;;18.80;99.90;;;;;;5009910;28;20056;-68
2021/07/12 02:06:39;;;;;;;5.00;2.28;;;18.80;99.90;;;;;;5010738;28;20728;-69
2021/07/12 02:09:48;;;;;;;5.18;2.20;;;18.80;99.90;;;;;;5051546;28;20064;-68
2021/07/12 02:12:54;;;;;;;6.00;2.25;;;18.80;99.90;;;;;;5049455;28;20044;-68
2021/07/12 02:16:02;;;;;;;6.32;2.17;;;18.80;99.90;;;;;;5050369;28;20051;-68
2021/07/12 02:19:10;;;;;;;4.15;2.15;;;18.80;99.90;;;;;;5050357;28;20040;-68
2021/07/12 02:22:27;;;;;;;2.60;1.70;;;18.80;99.90;;;;;;5049711;28;20036;-69
2021/07/12 02:25:35;;;;;;;2.83;1.70;;;18.80;99.90;;;;;;5038924;28;20372;-68
2021/07/12 02:28:46;;;;;;;4.38;2.47;;;18.80;99.90;;;;;;5062348;28;20039;-68
2021/07/12 02:31:52;;;;;;;7.70;3.20;;;18.90;99.90;;;;;;5070318;28;20047;-68
2021/07/12 02:34:58;;;;;;;6.57;2.58;;;18.90;99.90;;;;;;5070236;28;20043;-69
2021/07/12 02:38:05;;;;;;;5.63;3.08;;;19.00;99.90;;;;;;5069880;28;20421;-69
2021/07/12 02:41:14;;;;;;;12.93;3.00;;;19.00;99.90;;;;;;5069413;28;20048;-68
2021/07/12 02:44:19;;;;;;;3.40;2.22;;;19.00;99.90;;;;;;5070024;28;20502;-69
2021/07/12 02:47:24;;;;;;;5.00;2.53;;;19.00;99.90;;;;;;5069779;28;20047;-68
2021/07/12 02:50:32;;;;;;;5.22;2.63;;;19.00;99.90;;;;;;5069502;28;20080;-69
2021/07/12 02:53:44;;;;;;;8.80;3.30;;;19.00;99.90;;;;;;5069868;28;20107;-68
2021/07/12 02:56:50;;;;;;;4.70;2.70;;;19.00;99.90;;;;;;5069950;28;20055;-68
2021/07/12 02:59:55;;;;;;;6.82;2.58;;;19.00;99.90;;;;;;5068768;28;20072;-68
2021/07/12 03:03:00;;;;;;;5.38;2.70;;;19.00;99.90;;;;;;5070824;28;20031;-69
2021/07/12 03:06:13;;;;;;;6.78;2.72;;;19.00;99.90;;;;;;5070904;28;20064;-68
2021/07/12 03:09:28;;;;;;;5.72;3.40;;;18.90;99.90;;;;;;5070533;28;20071;-67
2021/07/12 03:12:41;;;;;;;6.22;3.83;;;18.00;99.90;;;;;;5069928;28;20571;-67
2021/07/12 03:15:50;;;;;;;8.75;5.25;;;17.80;99.90;;;;;;5069925;28;20064;-67
2021/07/12 03:18:59;;;;;;;21.63;6.28;;;17.50;99.90;;;;;;5069585;28;20509;-67
2021/07/12 03:22:07;;;;;;;9.40;7.18;;;17.20;99.90;;;;;;5069323;28;20043;-68
2021/07/12 03:25:41;;;;;;;10.75;6.78;;;17.30;99.90;;;;;;5069855;28;20048;-68
2021/07/12 03:28:48;;;;;;;13.00;7.60;;;17.30;99.90;;;;;;5073429;28;20039;-68
2021/07/12 03:31:53;;;;;;;13.35;7.35;;;17.50;99.90;;;;;;5074017;28;20497;-68
2021/07/12 03:34:58;;;;;;;9.35;6.10;;;17.50;99.90;;;;;;5073766;28;20032;-68
2021/07/12 03:38:03;;;;;;;12.00;5.75;;;17.50;99.90;;;;;;5073598;28;20504;-68
2021/07/12 03:41:07;;;;;;;9.38;4.85;;;17.50;99.90;;;;;;5072901;28;20055;-67
2021/07/12 03:44:11;;;;;;;10.70;5.30;;;17.50;99.90;;;;;;5074119;28;20478;-68
2021/07/12 03:47:43;;;;;;;11.55;5.38;;;17.50;99.90;;;;;;5074557;28;20047;-69
2021/07/12 03:50:52;;;;;;;10.98;5.30;;;17.60;99.90;;;;;;5073369;28;20048;-69
2021/07/12 03:53:56;;;;;;;7.50;3.65;;;17.70;99.90;;;;;;5074448;28;20055;-69
2021/07/12 03:57:00;;;;;;;5.60;3.70;;;17.70;99.90;;;;;;5074301;28;20040;-69
2021/07/12 04:00:06;;;;;;;7.50;3.58;;;17.80;99.90;;;;;;5072809;28;20383;-69
2021/07/12 04:03:16;;;;;;;9.65;4.05;;;17.90;99.90;;;;;;5074126;28;20047;-70
2021/07/12 04:06:21;;;;;;;5.72;3.90;;;18.10;99.90;;;;;;5073760;28;20047;-69
2021/07/12 04:09:25;;;;;;;13.10;6.45;;;18.20;99.90;;;;;;5072848;28;20051;-69
2021/07/12 04:12:29;;;;;;;21.08;8.48;;;18.40;99.90;;;;;;5073801;28;20048;-69
2021/07/12 04:15:33;;;;;;;13.93;7.28;;;18.60;99.90;;;;;;5073717;28;20052;-69
2021/07/12 04:18:38;;;;;;;15.18;7.32;;;18.90;99.90;;;;;;5073531;28;20051;-69
2021/07/12 04:21:42;;;;;;;14.43;7.53;;;19.00;99.90;;;;;;5073279;28;20051;-69
2021/07/12 04:24:46;;;;;;;13.90;7.57;;;19.20;99.90;;;;;;5072767;28;21155;-69
2021/07/12 04:27:50;;;;;;;10.88;6.50;;;19.40;99.90;;;;;;5073610;28;20048;-69
2021/07/12 04:30:54;;;;;;;12.07;6.85;;;19.50;99.90;;;;;;5072411;28;20498;-68
2021/07/12 04:33:59;;;;;;;17.48;7.47;;;19.70;99.90;;;;;;5073567;28;20052;-69
2021/07/12 04:37:04;;;;;;;14.00;6.47;;;19.90;99.90;;;;;;5073546;28;20047;-69
2021/07/12 04:40:09;;;;;;;10.82;5.80;;;20.90;99.90;;;;;;5071871;28;20051;-68
2021/07/12 04:43:13;;;;;;;10.32;7.05;;;22.30;99.90;;;;;;5073137;28;20047;-68
2021/07/12 04:46:19;;;;;;;11.30;5.97;;;21.80;99.90;;;;;;5072200;28;20490;-68
2021/07/12 04:49:25;;;;;;;9.27;6.22;;;22.10;99.90;;;;;;5071585;28;20043;-66
2021/07/12 04:52:40;;;;;;;8.90;5.68;;;20.70;99.90;;;;;;5041605;28;20044;-66
2021/07/12 04:56:07;;;;;;;12.25;5.20;;;21.60;99.90;;;;;;5051692;28;20051;-69
2021/07/12 04:59:13;;;;;;;10.27;5.40;;;23.00;99.90;;;;;;5072710;28;20059;-68
2021/07/12 05:02:17;;;;;;;7.85;4.90;;;23.50;99.90;;;;;;5070251;28;20057;-68
2021/07/12 05:05:21;;;;;;;10.90;5.10;;;24.30;99.90;;;;;;5052222;28;20059;-68
2021/07/12 05:08:26;;;;;;;13.10;5.70;;;23.50;99.90;;;;;;5052121;28;20036;-68
2021/07/12 05:11:30;;;;;;;10.20;5.75;;;22.10;99.90;;;;;;5052063;28;20055;-68
2021/07/12 05:14:37;;;;;;;12.77;5.78;;;21.50;99.90;;;;;;5054642;28;20376;-68
2021/07/12 05:17:42;;;;;;;8.75;5.68;;;21.70;99.90;;;;;;5045886;28;20065;-68
2021/07/12 05:20:46;;;;;;;12.50;5.97;;;22.30;99.90;;;;;;5043353;28;20047;-68
2021/07/12 05:23:51;;;;;;;11.70;6.07;;;22.90;99.90;;;;;;5050192;28;20032;-68
2021/07/12 05:26:56;;;;;;;10.95;5.53;;;23.50;99.90;;;;;;5058088;28;20059;-68
2021/07/12 05:30:00;;;;;;;12.32;5.60;;;22.40;99.90;;;;;;5068804;28;20059;-68
2021/07/12 05:33:06;;;;;;;11.55;5.85;;;21.80;99.90;;;;;;5071226;28;20059;-68
2021/07/12 05:36:12;;;;;;;10.05;5.57;;;22.00;99.90;;;;;;5072191;28;20043;-68
2021/07/12 05:39:16;;;;;;;10.32;6.50;;;21.10;99.90;;;;;;5064007;28;20051;-68
2021/07/12 05:42:23;;;;;;;14.10;6.35;;;20.70;99.90;;;;;;5070906;28;20058;-68
2021/07/12 05:45:27;;;;;;;16.38;6.35;;;22.50;99.90;;;;;;5071291;28;20082;-68
2021/07/12 05:48:31;;;;;;;12.70;6.40;;;23.00;99.90;;;;;;5071836;28;20114;-68
2021/07/12 05:51:36;;;;;;;7.95;5.38;;;23.20;99.90;;;;;;5070353;28;20049;-69
2021/07/12 05:54:40;;;;;;;12.15;5.70;;;23.20;99.90;;;;;;5071659;28;20055;-69
2021/07/12 05:57:44;;;;;;;8.27;4.80;;;23.20;99.90;;;;;;5075120;28;20493;-69
2021/07/12 06:00:48;;;;;;;12.65;4.85;;;22.90;99.90;;;;;;5084182;28;20043;-69
2021/07/12 06:03:52;;;;;;;13.95;5.03;;;23.20;99.90;;;;;;5079744;28;20031;-69
2021/07/12 06:06:57;;;;;;;9.40;4.53;;;23.70;99.90;;;;;;5072987;28;20051;-69
2021/07/12 06:10:02;;;;;;;10.63;4.40;;;24.50;99.90;;;;;;5080348;28;20039;-69
2021/07/12 06:13:07;;;;;;;14.43;5.88;;;25.60;99.90;;;;;;5091675;28;20049;-69
2021/07/12 06:16:11;;;;;;;8.07;4.93;;;24.30;99.90;;;;;;5091984;28;20504;-69
2021/07/12 06:19:16;;;;;;;12.63;5.53;;;25.50;99.90;;;;;;5088983;28;20047;-68
2021/07/12 06:22:20;;;;;;;6.00;4.55;;;24.50;99.90;;;;;;5071048;28;20051;-68
2021/07/12 06:25:25;;;;;;;13.93;4.80;;;24.40;99.90;;;;;;5070812;28;20055;-68
2021/07/12 06:28:29;;;;;;;10.93;4.68;;;24.40;99.90;;;;;;5071428;28;20044;-68
2021/07/12 06:31:33;;;;;;;7.07;4.10;;;25.10;99.90;;;;;;5071591;28;20521;-68
2021/07/12 06:34:38;;;;;;;8.70;4.30;;;26.90;99.90;;;;;;5069630;28;20056;-68
2021/07/12 06:37:42;;;;;;;9.18;4.30;;;27.90;97.40;;;;;;5071442;28;20044;-69
2021/07/12 06:40:46;;;;;;;10.38;4.47;;;25.80;99.20;;;;;;5071461;28;20086;-68
2021/07/12 06:43:53;;;;;;;9.13;3.90;;;26.60;98.80;;;;;;5091370;28;20673;-68
2021/07/12 06:47:03;;;;;;;12.07;3.90;;;27.60;97.00;;;;;;5090572;28;20043;-68
2021/07/12 06:50:08;;;;;;;9.38;3.30;;;27.90;96.40;;;;;;5089789;28;20059;-68
2021/07/12 06:53:12;;;;;;;9.75;4.18;;;27.90;96.30;;;;;;5089452;28;20035;-68
2021/07/12 06:56:16;;;;;;;9.70;4.22;;;26.80;97.20;;;;;;5091179;28;20047;-68
2021/07/12 06:59:20;;;;;;;9.60;3.80;;;27.60;96.60;;;;;;5091212;28;20371;-69
2021/07/12 07:02:24;;;;;;;8.00;3.70;;;28.30;95.60;;;;;;5087631;28;20478;-68
2021/07/12 07:05:39;;;;;;;13.30;3.63;;;28.40;94.30;;;;;;5069563;28;20043;-68
2021/07/12 07:09:04;;;;;;;10.02;4.63;;;26.30;97.20;;;;;;5050820;28;20060;-68
2021/07/12 07:12:09;;;;;;;9.00;3.88;;;25.40;98.10;;;;;;5080103;28;20039;-68
2021/07/12 07:15:21;;;;;;;11.25;4.47;;;25.40;99.70;;;;;;5073245;28;20040;-68
2021/07/12 07:18:25;;;;;;;10.40;4.32;;;25.10;99.90;;;;;;5079645;28;20433;-68
2021/07/12 07:21:29;;;;;;;9.68;4.35;;;27.00;97.40;;;;;;5067793;28;20043;-68
2021/07/12 07:24:34;;;;;;;7.13;3.60;;;26.40;98.10;;;;;;5070942;28;20119;-68
2021/07/12 07:27:38;;;;;;;10.85;4.10;;;27.00;97.40;;;;;;5070637;28;20036;-68
2021/07/12 07:30:42;;;;;;;11.43;3.63;;;26.40;98.40;;;;;;5069983;28;20047;-69
2021/07/12 07:33:47;;;;;;;17.65;5.15;;;25.60;99.00;;;;;;5081085;28;20493;-69
2021/07/12 07:36:51;;;;;;;9.05;4.53;;;24.90;99.90;;;;;;5090924;28;20039;-67
2021/07/12 07:39:55;;;;;;;6.43;3.80;;;24.70;99.90;;;;;;5090696;28;20039;-66
2021/07/12 07:42:58;;;;;;;9.10;4.07;;;24.00;99.90;;;;;;5089121;28;20043;-67
2021/07/12 07:46:03;;;;;;;9.32;4.20;;;24.70;99.90;;;;;;5050279;28;20044;-67
2021/07/12 07:49:08;;;;;;;10.98;4.50;;;25.90;99.80;;;;;;5069260;28;20044;-69
2021/07/12 07:52:12;;;;;;;11.93;3.58;;;26.30;98.90;;;;;;5069449;28;20043;-68
2021/07/12 07:55:16;;;;;;;11.95;4.57;;;27.50;97.70;;;;;;5087173;28;20055;-69
2021/07/12 07:58:20;;;;;;;8.88;3.85;;;29.40;94.60;;;;;;5090514;28;20047;-69
2021/07/12 08:01:25;;;;;;;9.18;3.30;;;30.70;92.40;;;;;;5088120;28;20043;-69
2021/07/12 08:04:29;;;;;;;5.85;3.00;;;32.40;90.10;;;;;;5088699;28;20390;-67
2021/07/12 08:07:33;;;;;;;11.27;3.20;;;33.60;85.70;;;;;;5090036;28;20035;-68
2021/07/12 08:10:39;;;;;;;5.93;3.20;;;30.60;87.80;;;;;;5089637;28;20614;-68
2021/07/12 08:13:43;;;;;;;15.40;3.40;;;31.50;87.50;;;;;;5091397;28;20406;-68
2021/07/12 08:16:49;;;;;;;6.00;3.10;;;30.50;88.60;;;;;;5053749;28;20044;-68
2021/07/12 08:19:53;;;;;;;10.57;3.80;;;29.00;90.80;;;;;;5053685;28;20048;-68
2021/07/12 08:22:57;;;;;;;7.35;2.92;;;29.00;91.10;;;;;;5071241;28;20051;-68
2021/07/12 08:26:01;;;;;;;6.38;3.30;;;28.80;91.30;;;;;;5074538;28;20043;-68
2021/07/12 08:29:05;;;;;;;8.65;3.13;;;28.30;91.90;;;;;;5068346;28;20047;-68
2021/07/12 08:32:11;;;;;;;10.30;3.25;;;28.30;91.70;;;;;;5072402;28;20036;-69
2021/07/12 08:35:16;;;;;;;6.53;3.28;;;28.60;92.00;;;;;;5078270;28;20032;-68
2021/07/12 08:38:20;;;;;;;12.90;3.50;;;28.40;91.90;;;;;;5072998;28;20035;-68
2021/07/12 08:41:25;;;;;;;8.13;3.10;;;27.20;93.00;;;;;;5072385;28;20043;-68
2021/07/12 08:44:30;;;;;;;11.05;3.40;;;28.80;92.20;;;;;;5073287;28;20051;-69
2021/07/12 08:47:35;;;;;;;11.70;2.88;;;30.00;90.90;;;;;;5052788;28;20486;-69
2021/07/12 08:50:40;;;;;;;6.40;2.90;;;31.90;88.50;;;;;;5059005;28;20039;-69
2021/07/12 08:53:47;;;;;;;7.47;2.80;;;32.70;85.70;;;;;;5067987;28;20047;-69
2021/07/12 08:56:51;;;;;;;8.07;3.05;;;33.80;83.80;;;;;;5072818;28;20047;-69
2021/07/12 08:59:56;;;;;;;8.30;2.70;;;34.90;80.90;;;;;;5074739;28;20058;-68
2021/07/12 09:03:18;;;;;;;6.53;2.45;;;37.00;76.10;;;;;;5075951;28;20039;-69
2021/07/12 09:06:25;;;;;;;9.80;2.60;;;37.10;75.00;;;;;;5067524;28;20380;-69
2021/07/12 09:09:29;;;;;;;4.45;2.10;;;38.70;71.10;;;;;;5062988;28;20044;-68
2021/07/12 09:12:51;;;;;;;2.33;1.50;;;39.00;68.60;;;;;;5067994;28;20047;-67
2021/07/12 09:15:55;;;;;;;4.13;2.00;;;39.70;66.20;;;;;;5065232;28;20043;-67
2021/07/12 09:19:19;;;;;;;5.22;1.90;;;39.30;66.60;;;;;;5082623;28;20051;-68
2021/07/12 09:22:40;;;;;;;4.53;1.70;;;40.60;63.00;;;;;;5055850;28;20525;-68
2021/07/12 09:26:04;;;;;;;4.35;1.85;;;38.80;61.20;;;;;;5063951;28;20039;-68
2021/07/12 09:29:21;;;;;;;4.43;2.10;;;36.10;66.30;;;;;;5072469;28;20040;-69
2021/07/12 09:32:30;;;;;;;6.75;2.00;;;39.00;65.30;;;;;;5071250;28;20349;-69
2021/07/12 09:35:35;;;;;;;7.65;2.00;;;40.10;63.80;;;;;;5058043;28;20044;-68
2021/07/12 09:38:42;;;;;;;5.22;1.63;;;38.70;61.80;;;;;;5068220;28;20043;-67
2021/07/12 09:41:51;;;;;;;2.58;1.80;;;40.30;63.50;;;;;;5064893;28;20040;-68
2021/07/12 09:45:03;;;;;;;6.38;1.90;;;42.70;61.70;;;;;;5067817;28;20383;-69
2021/07/12 09:48:08;;;;;;;3.42;1.60;;;43.70;59.10;;;;;;5063117;28;20375;-69
2021/07/12 09:51:30;;;;;;;2.53;1.50;;;42.60;58.30;;;;;;5064028;28;20481;-69
2021/07/12 09:54:38;;;;;;;4.15;1.80;;;41.70;59.50;;;;;;5069663;28;20048;-68
2021/07/12 09:57:42;;;;;;;6.22;1.70;;;42.50;56.90;;;;;;5071694;28;20048;-68
2021/07/12 10:00:48;;;;;;;6.25;1.80;;;42.50;58.00;;;;;;5070953;28;20047;-67
2021/07/12 10:03:53;;;;;;;3.13;1.63;;;40.40;57.80;;;;;;5071623;28;20047;-68
2021/07/12 10:06:57;;;;;;;4.85;1.60;;;42.20;58.00;;;;;;5071870;28;20052;-68
2021/07/12 10:10:05;;;;;;;3.13;1.67;;;43.40;56.50;;;;;;5076546;28;20043;-68
2021/07/12 10:13:09;;;;;;;5.72;1.70;;;45.20;56.10;;;;;;5078647;28;20044;-69
2021/07/12 10:16:13;;;;;;;6.15;1.30;;;39.40;58.00;;;;;;5072156;28;20047;-68
2021/07/12 10:19:18;;;;;;;4.22;1.70;;;41.90;58.00;;;;;;5071718;28;20043;-68
2021/07/12 10:22:23;;;;;;;6.00;1.58;;;40.20;58.00;;;;;;5068240;28;20039;-68
2021/07/12 10:25:32;;;;;;;5.45;1.58;;;39.70;57.00;;;;;;5071479;28;20482;-68
2021/07/12 10:28:43;;;;;;;4.40;1.65;;;39.80;59.10;;;;;;5068558;28;20052;-68
2021/07/12 10:32:06;;;;;;;3.33;1.52;;;41.60;57.40;;;;;;5073489;28;20047;-68
2021/07/12 10:35:11;;;;;;;3.80;1.45;;;39.20;59.10;;;;;;5069287;28;20042;-68
2021/07/12 10:38:18;;;;;;;4.18;1.55;;;41.10;57.40;;;;;;5070971;28;20419;-68
2021/07/12 10:41:26;;;;;;;5.68;1.70;;;43.20;56.20;;;;;;5056399;28;20055;-68
2021/07/12 10:45:08;;;;;;;5.07;1.60;;;43.60;55.80;;;;;;5090580;28;20039;-69
2021/07/12 10:48:15;;;;;;;3.47;1.67;;;43.90;56.40;;;;;;5072484;28;20544;-67
2021/07/12 10:51:20;;;;;;;4.13;1.85;;;40.20;58.00;;;;;;5071854;28;20039;-67
2021/07/12 10:54:25;;;;;;;5.22;1.60;;;39.10;58.20;;;;;;5070346;28;20048;-69
2021/07/12 10:57:30;;;;;;;3.92;1.63;;;41.60;57.70;;;;;;5070769;28;20044;-68
2021/07/12 11:00:38;;;;;;;4.53;1.80;;;39.20;58.00;;;;;;5069901;28;20048;-68
2021/07/12 11:03:49;;;;;;;3.75;1.80;;;37.60;60.00;;;;;;5050474;28;20943;-68
2021/07/12 11:06:55;;;;;;;4.32;1.67;;;40.00;59.50;;;;;;5081661;28;20040;-67
2021/07/12 11:10:02;;;;;;;4.18;1.48;;;41.00;57.50;;;;;;5077290;28;20047;-68
2021/07/12 11:13:11;;;;;;;7.88;2.10;;;40.00;57.30;;;;;;5087230;28;20194;-68
2021/07/12 11:16:18;;;;;;;5.70;1.60;;;37.80;60.40;;;;;;5073251;28;20042;-68
2021/07/12 11:19:32;;;;;;;3.58;1.70;;;39.50;58.80;;;;;;5084108;28;20043;-68
2021/07/12 11:22:51;;;;;;;10.15;2.05;;;38.90;59.10;;;;;;5060870;28;20514;-68
2021/07/12 11:25:56;;;;;;;5.03;1.90;;;38.00;58.20;;;;;;5050650;28;20044;-68
2021/07/12 11:29:14;;;;;;;5.90;1.73;;;38.10;59.90;;;;;;5062472;28;20036;-69
2021/07/12 11:32:18;;;;;;;6.22;1.55;;;39.50;59.40;;;;;;5065873;28;20040;-68
2021/07/12 11:35:23;;;;;;;6.03;2.08;;;40.50;57.40;;;;;;5060351;28;20043;-70
2021/07/12 11:38:27;;;;;;;3.95;2.28;;;39.80;57.90;;;;;;5070912;28;20073;-68
2021/07/12 11:41:32;;;;;;;5.30;2.15;;;39.40;57.00;;;;;;5066300;28;20047;-68
2021/07/12 11:44:36;;;;;;;5.03;1.90;;;38.30;58.30;;;;;;5069338;28;20040;-68
2021/07/12 11:47:43;;;;;;;6.32;2.10;;;37.60;59.40;;;;;;5072524;28;20039;-68
2021/07/12 11:50:48;;;;;;;2.65;1.67;;;37.90;59.20;;;;;;5073235;28;20047;-68
2021/07/12 11:53:53;;;;;;;4.45;2.00;;;38.00;58.80;;;;;;5088649;28;20043;-70
2021/07/12 11:56:59;;;;;;;8.70;1.98;;;37.30;59.10;;;;;;5094640;28;20053;-69
2021/07/12 12:00:12;;;;;;;5.85;2.20;;;38.10;59.10;;;;;;5058148;28;20051;-68
2021/07/12 12:03:17;;;;;;;7.88;1.92;;;36.90;60.60;;;;;;5094465;28;20047;-68
2021/07/12 12:06:24;;;;;;;3.78;1.70;;;36.20;62.20;;;;;;5084621;28;20028;-68
2021/07/12 12:09:48;;;;;;;4.70;1.70;;;36.40;60.20;;;;;;5074099;28;20040;-68
2021/07/12 12:13:03;;;;;;;7.50;2.20;;;36.50;60.70;;;;;;5071513;28;20040;-68
2021/07/12 12:16:12;;;;;;;3.25;2.10;;;36.50;59.40;;;;;;5073575;28;20043;-68
2021/07/12 12:19:16;;;;;;;4.28;2.03;;;35.90;61.00;;;;;;5073899;28;20056;-68
2021/07/12 12:22:21;;;;;;;2.95;1.85;;;36.00;61.30;;;;;;5075927;28;20039;-68
2021/07/12 12:25:35;;;;;;;4.18;2.40;;;37.50;60.50;;;;;;5073568;28;20040;-68
2021/07/12 12:28:50;;;;;;;4.20;1.85;;;38.00;59.10;;;;;;5072770;28;20031;-68
2021/07/12 12:31:56;;;;;;;4.90;1.85;;;37.90;59.40;;;;;;5067528;28;20040;-68
2021/07/12 12:35:05;;;;;;;3.22;1.73;;;38.20;59.00;;;;;;5060667;28;20056;-70
2021/07/12 12:38:13;;;;;;;4.65;2.13;;;37.40;61.10;;;;;;5063483;28;20117;-69
2021/07/12 12:41:27;;;;;;;7.43;1.98;;;36.00;61.50;;;;;;5070491;28;20043;-69
2021/07/12 12:44:40;;;;;;;6.03;2.00;;;36.40;59.90;;;;;;5055403;28;20032;-69
2021/07/12 12:47:45;;;;;;;4.63;2.20;;;36.40;60.80;;;;;;5073552;28;20071;-68
2021/07/12 12:50:49;;;;;;;3.42;1.80;;;36.20;60.60;;;;;;5076819;28;20047;-69
2021/07/12 12:54:03;;;;;;;2.90;1.55;;;36.50;61.10;;;;;;5070774;28;20055;-69
2021/07/12 12:57:08;;;;;;;7.72;2.05;;;36.60;59.80;;;;;;5073286;28;20043;-68
2021/07/12 13:00:18;;;;;;;5.57;1.98;;;36.50;60.50;;;;;;5071737;28;20079;-68
2021/07/12 13:03:26;;;;;;;3.30;2.00;;;37.10;59.50;;;;;;5090765;28;20498;-68
2021/07/12 13:06:55;;;;;;;4.38;2.10;;;36.60;59.10;;;;;;5073004;28;20047;-69
2021/07/12 13:10:11;;;;;;;8.38;2.22;;;37.00;59.30;;;;;;5072587;28;20043;-67
2021/07/12 13:13:25;;;;;;;5.65;2.30;;;35.90;59.90;;;;;;5091363;28;20043;-68
2021/07/12 13:16:32;;;;;;;6.80;2.00;;;36.10;59.60;;;;;;5066656;28;20043;-68
2021/07/12 13:19:39;;;;;;;2.70;1.63;;;37.30;59.20;;;;;;5061553;28;20146;-69
2021/07/12 13:22:52;;;;;;;4.00;1.85;;;36.00;59.80;;;;;;5083325;28;20051;-68
2021/07/12 13:26:09;;;;;;;;;;;36.30;59.80;;;;;;5093020;28;20375;-68
2021/07/12 13:29:14;;;;;;;8.20;1.95;;;36.10;60.20;;;;;;5092641;28;19919;-68
2021/07/12 13:32:18;;;;;;;4.30;1.67;;;36.90;59.80;;;;;;5090270;28;20039;-69
2021/07/12 13:35:29;;;;;;;4.53;2.00;;;37.90;58.60;;;;;;5092085;28;20039;-68
2021/07/12 13:38:33;;;;;;;;;;;38.20;57.50;;;;;;5092910;28;20051;-68
2021/07/12 13:41:38;;;;;;;4.03;1.73;;;37.50;58.50;;;;;;5084124;28;19919;-68
2021/07/12 13:44:44;;;;;;;5.32;2.25;;;37.30;58.40;;;;;;5071837;28;20043;-69
2021/07/12 13:47:48;;;;;;;6.22;1.77;;;36.40;59.40;;;;;;5071652;28;20055;-68
2021/07/12 13:50:52;;;;;;;4.28;2.15;;;37.00;60.00;;;;;;5072564;28;20042;-67
2021/07/12 13:53:56;;;;;;;5.65;2.17;;;37.30;60.00;;;;;;5068002;28;20039;-68
2021/07/12 13:57:02;;;;;;;2.80;1.90;;;35.30;60.30;;;;;;5071535;28;20043;-69
2021/07/12 14:00:10;;;;;;;4.68;1.90;;;35.30;62.40;;;;;;5070050;28;20039;-67
2021/07/12 14:03:18;;;;;;;5.43;1.90;;;34.20;61.90;;;;;;5051802;28;20052;-69
2021/07/12 14:06:22;;;;;;;7.05;2.22;;;34.80;61.90;;;;;;5051492;28;20043;-69
2021/07/12 14:09:26;;;;;;;18.92;3.25;;;35.90;61.10;;;;;;5051740;28;20040;-69
2021/07/12 14:12:31;;;;;;;3.20;2.22;;;36.30;61.70;;;;;;5084903;28;20055;-68
2021/07/12 14:15:36;;;;;;;4.57;2.20;;;35.60;61.60;;;;;;5091488;28;20047;-66
2021/07/12 14:18:40;;;;;;;10.68;2.40;;;35.30;62.50;;;;;;5091809;28;20051;-68
2021/07/12 14:21:44;;;;;;;8.40;2.28;;;35.10;61.10;;;;;;5065381;28;20046;-68
2021/07/12 14:24:50;;;;;;;4.90;2.00;;;35.20;61.80;;;;;;5087451;28;20047;-69
2021/07/12 14:27:54;;;;;;;6.95;2.28;;;35.20;60.40;;;;;;5067953;28;20032;-67
2021/07/12 14:30:58;;;;;;;3.28;2.00;;;34.90;61.30;;;;;;5051995;28;20052;-68
2021/07/12 14:34:03;;;;;;;6.97;2.40;;;34.70;61.40;;;;;;5067995;28;20098;-69
2021/07/12 14:37:07;;;;;;;6.15;2.13;;;35.40;60.90;;;;;;5071475;28;20051;-68
2021/07/12 14:40:13;;;;;;;4.53;1.92;;;35.40;60.70;;;;;;5070064;28;20505;-69
2021/07/12 14:43:18;;;;;;;9.68;2.30;;;35.90;60.00;;;;;;5050406;28;20051;-68
2021/07/12 14:46:22;;;;;;;4.93;2.13;;;35.50;59.70;;;;;;5052937;28;20051;-69
2021/07/12 14:49:27;;;;;;;3.00;2.00;;;35.90;60.10;;;;;;5084082;28;20371;-68
2021/07/12 14:52:34;;;;;;;6.70;2.08;;;36.40;59.00;;;;;;5062634;28;20059;-69
2021/07/12 14:55:39;;;;;;;6.00;2.22;;;36.50;59.00;;;;;;5051361;28;20506;-68
2021/07/12 14:58:45;;;;;;;4.78;2.03;;;35.80;60.70;;;;;;5051253;28;20048;-67
2021/07/12 15:01:49;;;;;;;11.90;1.77;;;34.90;61.00;;;;;;5067700;28;20047;-67
2021/07/12 15:04:54;;;;;;;8.85;2.05;;;33.80;60.10;;;;;;5050706;28;20044;-67
2021/07/12 15:07:58;;;;;;;5.93;1.98;;;34.00;61.00;;;;;;5049980;28;20044;-67
2021/07/12 15:11:05;;;;;;;5.07;2.05;;;33.60;60.90;;;;;;5057778;28;20048;-68
2021/07/12 15:14:09;;;;;;;5.38;1.83;;;33.30;60.80;;;;;;5090727;28;20355;-67
2021/07/12 15:17:13;;;;;;;9.63;2.10;;;33.70;62.40;;;;;;5090760;28;20047;-66
2021/07/12 15:20:18;;;;;;;8.15;2.30;;;33.50;59.70;;;;;;5090118;28;20047;-67
2021/07/12 15:23:22;;;;;;;14.10;2.40;;;33.40;59.70;;;;;;5077015;28;20056;-66
2021/07/12 15:26:27;;;;;;;17.00;2.42;;;33.00;59.00;;;;;;5060806;28;20047;-67
2021/07/12 15:29:31;;;;;;;13.52;2.92;;;32.80;60.10;;;;;;5081436;28;20039;-67
2021/07/12 15:32:36;;;;;;;8.55;2.60;;;32.90;58.20;;;;;;5095171;28;20051;-67
2021/07/12 15:35:40;;;;;;;17.27;2.50;;;32.70;59.40;;;;;;5094959;28;20063;-66
2021/07/12 15:38:46;;;;;;;7.40;2.65;;;32.50;59.30;;;;;;5094680;28;20055;-67
2021/07/12 15:41:51;;;;;;;23.75;2.83;;;32.10;59.80;;;;;;5094260;28;21058;-67
2021/07/12 15:44:55;;;;;;;8.00;2.05;;;32.00;60.80;;;;;;5093786;28;20039;-66
2021/07/12 15:47:59;;;;;;;23.05;2.95;;;32.00;61.00;;;;;;5094514;28;20039;-67
2021/07/12 15:51:03;;;;;;;6.03;2.13;;;31.80;61.10;;;;;;5087288;28;20047;-67
2021/07/12 15:54:08;;;;;;;5.53;2.40;;;31.60;61.90;;;;;;5068549;28;20040;-67
2021/07/12 15:57:13;;;;;;;8.68;2.20;;;31.60;62.00;;;;;;5054366;28;20526;-67
2021/07/12 16:00:18;;;;;;;6.28;2.20;;;31.70;61.80;;;;;;5073337;28;20063;-67
2021/07/12 16:03:23;;;;;;;2.88;2.20;;;31.80;62.50;;;;;;5069664;28;20040;-67
2021/07/12 16:06:28;;;;;;;4.18;2.00;;;31.80;62.70;;;;;;5074064;28;20391;-67
2021/07/12 16:09:33;;;;;;;11.00;2.60;;;31.60;63.10;;;;;;5053521;28;20044;-67
2021/07/12 16:12:38;;;;;;;5.80;2.25;;;31.90;63.30;;;;;;5053747;28;20398;-67
2021/07/12 16:15:42;;;;;;;4.25;2.00;;;32.10;63.00;;;;;;5053569;28;20048;-66